KPKB/PKB METAR and TAF weather

Enter ICAO airport designator
Station Type Date Time Source
KPKB METAR 2019/12/08 06:53 UTC NOAA

KPKB 080653Z AUTO 00000KT 10SM CLR M03/M06 A3035 RMK AO2 SLP283 T10331056


Station Type Date Time Source
KPKB Decoded METAR 2019/12/08 06:53 UTC NOAA

MID-OHIO VALLEY RGNL AIRPORT, WV, United States (KPKB) 39-20N 81-27W
Dec 08, 2019 - 01:53 AM EST / 2019.12.08 0653 UTC
Wind: Calm:0
Visibility: 10 mile(s):0
Sky conditions: clear
Temperature: 26.1 F (-3.3 C)
Dew Point: 21.9 F (-5.6 C)
Relative Humidity: 84%
Pressure (altimeter): 30.35 in. Hg (1027 hPa)
ob: KPKB 080653Z AUTO 00000KT 10SM CLR M03/M06 A3035 RMK AO2 SLP283 T10331056
cycle: 7

Station Type Date Time Source
KPKB TAF 2019/12/08 06:30 UTC NOAA

TAF KPKB 080528Z 0806/0906 00000KT P6SM SKC
FM081200 17004KT P6SM SCT200
FM081400 18005KT P6SM BKN090
FM081700 19007KT P6SM OVC060
FM090500 18005KT P6SM OVC045

Example: see airport list